Route Details

Aircraft Information
Group: European Fleet
Types: A30F, A31F, B738
Route Data
Distance: 281nm
Duration: 1h 00m
Origin METAR: LSGG 080020Z AUTO 36003KT 320V040 CAVOK 00/M04 Q1031 NOSIG
Dest. METAR: EDDK 080020Z AUTO 11003KT 080V170 CAVOK M05/M07 Q1039 NOSIG
Freight Data
(for Feb 8, 2023)
Load Factor:
76%
Manifested Cargo: 61,194lbs
Financial History
Total Freight: 387,592lbs
Average Load: 0lbs/flt
Fuel Used: 118,712lbs
Avg. Fuel Used: 0lbs/flt
Fuel Expense: $55,846
Avg. Fuel Expense: $0
Avg. Fuel Cost: $0/lbs
Total Gross Income: $789,722
Pilot Pay: $2,161
Total Expenses: $141,557
Total Revenue: $548,586
Average Revenue: $0

Capitol Logistics 582




LSGG
Geneve-Cointrin Airport
Geneva, CH
EDDK
Cologne Bonn Airport
Cologne, DE